createdAt,value
2018-08-12T00:00:12.837Z,0.00
2018-08-12T00:01:12.854Z,0.00
2018-08-12T00:02:12.858Z,0.00
2018-08-12T00:03:12.870Z,0.00
2018-08-12T00:04:13.014Z,0.00
2018-08-12T00:05:12.777Z,0.00
2018-08-12T00:06:12.903Z,0.00
2018-08-12T00:07:12.779Z,0.00
2018-08-12T00:08:12.805Z,0.00
2018-08-12T00:09:13.133Z,0.00
2018-08-12T00:10:12.814Z,0.00
2018-08-12T00:11:12.948Z,0.00
2018-08-12T00:12:12.840Z,0.00
2018-08-12T00:13:12.841Z,0.00
2018-08-12T00:14:13.048Z,0.00
2018-08-12T00:15:12.919Z,0.00
2018-08-12T00:16:12.877Z,0.00
2018-08-12T00:17:12.936Z,0.00
2018-08-12T00:18:13.017Z,0.00
2018-08-12T00:19:13.202Z,0.00
2018-08-12T00:20:12.910Z,0.00
2018-08-12T00:21:12.962Z,0.00
2018-08-12T00:22:13.054Z,0.00
2018-08-12T00:23:12.943Z,0.00
2018-08-12T00:24:13.148Z,0.00
2018-08-12T00:25:13.088Z,0.00
2018-08-12T00:26:13.091Z,0.00
2018-08-12T00:27:12.973Z,0.00
2018-08-12T00:28:12.987Z,0.00
2018-08-12T00:29:13.377Z,0.00
2018-08-12T00:30:13.137Z,0.00
2018-08-12T00:31:13.007Z,0.00
2018-08-12T00:32:13.066Z,0.00
2018-08-12T00:33:13.159Z,0.00
2018-08-12T00:34:13.248Z,0.00
2018-08-12T00:35:13.054Z,0.00
2018-08-12T00:36:13.065Z,0.00
2018-08-12T00:37:13.202Z,0.00
2018-08-12T00:38:13.208Z,0.00
2018-08-12T00:39:13.419Z,0.00
2018-08-12T00:40:13.103Z,0.00
2018-08-12T00:41:13.239Z,0.00
2018-08-12T00:42:13.123Z,0.00
2018-08-12T00:43:13.131Z,0.00
2018-08-12T00:44:13.345Z,0.00
2018-08-12T00:45:13.169Z,0.00
2018-08-12T00:46:13.199Z,0.00
2018-08-12T00:47:13.291Z,0.00
2018-08-12T00:48:13.309Z,0.00
2018-08-12T00:49:13.519Z,0.00
2018-08-12T00:50:13.324Z,0.00
2018-08-12T00:51:13.334Z,0.00
2018-08-12T00:52:13.213Z,0.00
2018-08-12T00:53:13.241Z,0.00
2018-08-12T00:54:13.437Z,0.00
2018-08-12T00:55:13.246Z,0.00
2018-08-12T00:56:13.252Z,0.00
2018-08-12T00:57:13.272Z,0.00
2018-08-12T00:58:13.321Z,0.00
2018-08-12T00:59:13.575Z,0.00
2018-08-12T01:00:13.302Z,0.00
2018-08-12T01:01:13.311Z,0.00
2018-08-12T01:02:13.300Z,0.00
2018-08-12T01:03:13.444Z,0.00
2018-08-12T01:04:13.536Z,0.00
2018-08-12T01:05:13.464Z,0.00
2018-08-12T01:06:13.475Z,0.00
2018-08-12T01:07:13.348Z,0.00
2018-08-12T01:08:13.370Z,0.00
2018-08-12T01:09:13.573Z,0.00
2018-08-12T01:10:13.390Z,0.00
2018-08-12T01:11:13.389Z,0.00
2018-08-12T01:12:13.414Z,0.00
2018-08-12T01:13:13.414Z,0.00
2018-08-12T01:14:13.750Z,0.00
2018-08-12T01:15:13.451Z,0.00
2018-08-12T01:16:13.446Z,0.00
2018-08-12T01:17:13.454Z,0.00
2018-08-12T01:18:13.590Z,0.00
2018-08-12T01:19:13.672Z,0.00
2018-08-12T01:20:13.611Z,0.00
2018-08-12T01:21:13.496Z,0.00
2018-08-12T01:22:13.541Z,0.00
2018-08-12T01:23:13.523Z,0.00
2018-08-12T01:24:13.900Z,0.00
2018-08-12T01:25:13.568Z,0.00
2018-08-12T01:26:13.556Z,0.00
2018-08-12T01:27:13.583Z,0.00
2018-08-12T01:28:13.689Z,0.00
2018-08-12T01:29:13.813Z,0.00
2018-08-12T01:30:13.581Z,0.00
2018-08-12T01:31:13.711Z,0.00
2018-08-12T01:32:13.725Z,0.00
2018-08-12T01:33:13.605Z,0.00
2018-08-12T01:34:13.621Z,0.00
2018-08-12T01:35:13.937Z,0.00
2018-08-12T01:36:13.760Z,0.00
2018-08-12T01:37:13.768Z,0.00
2018-08-12T01:38:13.657Z,0.00
2018-08-12T01:39:13.654Z,0.00
2018-08-12T01:40:13.923Z,0.00
2018-08-12T01:41:13.678Z,0.00
2018-08-12T01:42:13.818Z,0.00
2018-08-12T01:43:13.705Z,0.00
2018-08-12T01:44:13.700Z,0.00
2018-08-12T01:45:14.048Z,0.00
2018-08-12T01:46:13.727Z,0.00
2018-08-12T01:47:13.751Z,0.00
2018-08-12T01:48:13.742Z,0.00
2018-08-12T01:49:13.770Z,0.00
2018-08-12T01:50:13.962Z,0.00
2018-08-12T01:51:13.770Z,0.00
2018-08-12T01:52:13.906Z,0.00
2018-08-12T01:53:13.819Z,0.00
2018-08-12T01:54:13.806Z,0.00
2018-08-12T01:55:14.113Z,0.00
2018-08-12T01:56:13.820Z,0.00
2018-08-12T01:57:13.828Z,0.00
2018-08-12T01:58:13.840Z,0.00
2018-08-12T01:59:13.846Z,0.00
2018-08-12T02:00:14.103Z,0.00
2018-08-12T02:01:13.996Z,0.00
2018-08-12T02:02:13.876Z,0.00
2018-08-12T02:03:13.891Z,0.00
2018-08-12T02:04:13.898Z,0.00
2018-08-12T02:05:14.166Z,0.00
2018-08-12T02:06:13.910Z,0.00
2018-08-12T02:07:14.053Z,0.00
2018-08-12T02:08:14.063Z,0.00
2018-08-12T02:09:14.066Z,0.00
2018-08-12T02:10:14.151Z,0.00
2018-08-12T02:11:13.980Z,0.00
2018-08-12T02:12:13.975Z,0.00
2018-08-12T02:13:13.972Z,0.00
2018-08-12T02:14:13.998Z,0.00
2018-08-12T02:15:14.251Z,0.00
2018-08-12T02:16:14.007Z,0.00
2018-08-12T02:17:14.143Z,0.00
2018-08-12T02:18:14.031Z,0.00
2018-08-12T02:19:14.038Z,0.00
2018-08-12T02:20:14.195Z,0.00
2018-08-12T02:21:14.180Z,0.00
2018-08-12T02:22:14.191Z,0.00
2018-08-12T02:23:14.067Z,0.00
2018-08-12T02:24:14.094Z,0.00
2018-08-12T02:25:14.394Z,0.00
2018-08-12T02:26:14.099Z,0.00
2018-08-12T02:27:14.236Z,0.00
2018-08-12T02:28:14.138Z,0.00
2018-08-12T02:29:14.131Z,0.00
2018-08-12T02:30:14.265Z,0.00
2018-08-12T02:31:14.418Z,0.00
2018-08-12T02:32:14.155Z,0.00
2018-08-12T02:33:14.163Z,0.00
2018-08-12T02:34:14.298Z,0.00
2018-08-12T02:35:14.179Z,0.00
2018-08-12T02:36:14.319Z,0.00
2018-08-12T02:37:14.581Z,0.00
2018-08-12T02:38:14.225Z,0.00
2018-08-12T02:39:14.230Z,0.00
2018-08-12T02:40:14.233Z,0.00
2018-08-12T02:41:14.362Z,0.00
2018-08-12T02:42:14.574Z,0.00
2018-08-12T02:43:14.260Z,0.00
2018-08-12T02:44:14.265Z,0.00
2018-08-12T02:45:14.402Z,0.00
2018-08-12T02:46:14.291Z,0.00
2018-08-12T02:47:14.450Z,0.00
2018-08-12T02:48:14.428Z,0.00
2018-08-12T02:49:14.439Z,0.00
2018-08-12T02:50:14.452Z,0.00
2018-08-12T02:51:14.531Z,0.00
2018-08-12T02:52:14.342Z,0.00
2018-08-12T02:53:14.349Z,0.00
2018-08-12T02:54:14.369Z,0.00
2018-08-12T02:55:14.366Z,0.00
2018-08-12T02:56:14.805Z,0.00
2018-08-12T02:57:14.512Z,0.00
2018-08-12T02:58:14.391Z,0.00
2018-08-12T02:59:14.527Z,0.00
2018-08-12T03:00:14.443Z,0.00
2018-08-12T03:01:14.724Z,0.00
2018-08-12T03:02:14.437Z,0.00
2018-08-12T03:03:14.440Z,0.00
2018-08-12T03:04:14.573Z,0.00
2018-08-12T03:05:14.448Z,0.00
2018-08-12T03:06:14.710Z,0.00
2018-08-12T03:07:14.478Z,0.00
2018-08-12T03:09:14.508Z,0.00
2018-08-12T03:10:14.629Z,0.00
2018-08-12T03:11:14.655Z,0.00
2018-08-12T03:12:14.532Z,0.00
2018-08-12T03:13:14.530Z,0.00
2018-08-12T03:14:14.539Z,0.00
2018-08-12T03:15:14.770Z,0.00
2018-08-12T03:16:14.557Z,0.00
2018-08-12T03:17:14.562Z,0.00
2018-08-12T03:18:14.705Z,0.00
2018-08-12T03:19:14.710Z,0.00
2018-08-12T03:20:14.796Z,0.00
2018-08-12T03:21:14.609Z,0.00
2018-08-12T03:22:14.658Z,0.00
2018-08-12T03:23:14.746Z,0.00
2018-08-12T03:24:14.630Z,0.00
2018-08-12T03:25:14.908Z,0.00
2018-08-12T03:26:14.647Z,0.00
2018-08-12T03:27:14.785Z,0.00
2018-08-12T03:28:14.787Z,0.00
2018-08-12T03:29:14.683Z,0.00
2018-08-12T03:30:15.021Z,0.00
2018-08-12T03:31:14.712Z,0.00
2018-08-12T03:32:14.708Z,0.00
2018-08-12T03:33:14.727Z,0.00
2018-08-12T03:34:14.843Z,0.00
2018-08-12T03:35:14.993Z,0.00
2018-08-12T03:36:14.858Z,0.00
2018-08-12T03:37:14.744Z,0.00
2018-08-12T03:38:14.752Z,0.00
2018-08-12T03:39:14.760Z,0.00
2018-08-12T03:40:14.921Z,0.00
2018-08-12T03:41:14.904Z,0.00
2018-08-12T03:42:14.787Z,0.00
2018-08-12T03:43:14.808Z,0.00
2018-08-12T03:44:14.931Z,0.00
2018-08-12T03:45:15.079Z,0.00
2018-08-12T03:46:14.948Z,0.00
2018-08-12T03:47:14.830Z,0.00
2018-08-12T03:48:14.900Z,0.00
2018-08-12T03:49:14.859Z,0.00
2018-08-12T03:50:15.103Z,0.00
2018-08-12T03:51:14.877Z,0.00
2018-08-12T03:52:14.876Z,0.00
2018-08-12T03:53:15.015Z,0.00
2018-08-12T03:54:14.889Z,0.00
2018-08-12T03:55:15.161Z,0.00
2018-08-12T03:56:14.901Z,0.00
2018-08-12T03:57:15.045Z,0.00
2018-08-12T03:58:14.926Z,0.00
2018-08-12T03:59:14.964Z,0.00
2018-08-12T04:00:15.148Z,0.00
2018-08-12T04:01:14.961Z,0.00
2018-08-12T04:02:15.003Z,0.00
2018-08-12T04:03:15.101Z,0.00
2018-08-12T04:04:15.006Z,0.00
2018-08-12T04:05:15.152Z,0.00
2018-08-12T04:06:15.033Z,0.00
2018-08-12T04:07:15.307Z,0.00
2018-08-12T04:08:15.142Z,0.00
2018-08-12T04:09:15.152Z,0.00
2018-08-12T04:10:15.035Z,0.00
2018-08-12T04:11:15.174Z,0.00
2018-08-12T04:12:15.422Z,0.00
2018-08-12T04:13:15.186Z,0.00
2018-08-12T04:14:15.190Z,0.00
2018-08-12T04:15:15.081Z,0.00
2018-08-12T04:16:15.082Z,0.00
2018-08-12T04:17:15.418Z,0.00
2018-08-12T04:18:15.224Z,0.00
2018-08-12T04:19:15.110Z,0.00
2018-08-12T04:20:15.130Z,0.00
2018-08-12T04:21:15.181Z,0.00
2018-08-12T04:22:15.144Z,0.00
2018-08-12T04:23:15.517Z,0.00
2018-08-12T04:24:15.289Z,0.00
2018-08-12T04:25:15.285Z,0.00
2018-08-12T04:26:15.298Z,0.00
2018-08-12T04:27:15.301Z,0.00
2018-08-12T04:28:15.185Z,0.00
2018-08-12T04:29:15.401Z,0.00
2018-08-12T04:30:15.327Z,0.00
2018-08-12T04:31:15.225Z,0.00
2018-08-12T04:32:15.348Z,0.00
2018-08-12T04:33:15.225Z,0.00
2018-08-12T04:34:15.364Z,0.00
2018-08-12T04:35:15.493Z,0.00
2018-08-12T04:36:15.257Z,0.00
2018-08-12T04:37:15.258Z,0.00
2018-08-12T04:38:15.264Z,0.00
2018-08-12T04:39:15.283Z,0.00
2018-08-12T04:40:15.309Z,0.00
2018-08-12T04:41:15.673Z,0.00
2018-08-12T04:42:15.299Z,0.00
2018-08-12T04:43:15.315Z,0.00
2018-08-12T04:44:15.444Z,0.00
2018-08-12T04:45:15.454Z,0.00
2018-08-12T04:46:15.661Z,0.00
2018-08-12T04:47:15.352Z,0.00
2018-08-12T04:48:15.483Z,0.00
2018-08-12T04:49:15.361Z,0.00
2018-08-12T04:50:15.375Z,0.00
2018-08-12T04:51:15.385Z,0.00
2018-08-12T04:52:15.814Z,0.00
2018-08-12T04:53:15.520Z,0.00
2018-08-12T04:54:15.532Z,0.00
2018-08-12T04:55:15.536Z,0.00
2018-08-12T04:56:15.424Z,0.00
2018-08-12T04:57:15.442Z,0.00
2018-08-12T04:58:15.685Z,0.00
2018-08-12T04:59:15.477Z,0.00
2018-08-12T05:00:15.460Z,0.00
2018-08-12T05:01:15.464Z,0.00
2018-08-12T05:02:15.592Z,0.00
2018-08-12T05:03:15.803Z,0.00
2018-08-12T05:04:15.528Z,0.00
2018-08-12T05:05:15.497Z,0.00
2018-08-12T05:06:15.626Z,0.00
2018-08-12T05:07:15.521Z,0.00
2018-08-12T05:08:15.795Z,0.00
2018-08-12T05:09:15.534Z,0.00
2018-08-12T05:10:15.657Z,0.00
2018-08-12T05:11:15.549Z,0.00
2018-08-12T05:12:15.681Z,0.00
2018-08-12T05:13:15.767Z,0.00
2018-08-12T05:14:15.694Z,0.00
2018-08-12T05:15:15.570Z,0.00
2018-08-12T05:16:15.582Z,0.00
2018-08-12T05:17:15.588Z,0.00
2018-08-12T05:18:15.729Z,0.00
2018-08-12T05:19:15.983Z,0.00
2018-08-12T05:20:15.624Z,0.00
2018-08-12T05:21:15.621Z,0.00
2018-08-12T05:22:15.638Z,0.00
2018-08-12T05:23:15.653Z,0.00
2018-08-12T05:24:15.776Z,0.00
2018-08-12T05:25:15.860Z,0.00
2018-08-12T05:26:15.681Z,0.00
2018-08-12T05:27:15.687Z,0.00
2018-08-12T05:28:15.807Z,0.00
2018-08-12T05:29:15.822Z,0.00
2018-08-12T05:30:15.901Z,0.00
2018-08-12T05:31:15.715Z,0.00
2018-08-12T05:32:15.718Z,0.00
2018-08-12T05:33:15.740Z,0.00
2018-08-12T05:34:15.745Z,0.00
2018-08-12T05:35:15.989Z,0.00
2018-08-12T05:36:15.954Z,0.00
2018-08-12T05:37:15.888Z,0.00
2018-08-12T05:38:15.889Z,0.00
2018-08-12T05:39:15.899Z,0.00
2018-08-12T05:40:16.031Z,0.00
2018-08-12T05:41:15.795Z,0.00
2018-08-12T05:42:15.921Z,0.00
2018-08-12T05:43:15.931Z,0.00
2018-08-12T05:44:15.817Z,0.00
2018-08-12T05:45:16.149Z,0.00
2018-08-12T05:46:15.955Z,0.00
2018-08-12T05:47:15.837Z,0.00
2018-08-12T05:48:15.853Z,0.00
2018-08-12T05:49:15.903Z,0.00
2018-08-12T05:50:16.143Z,0.00
2018-08-12T05:51:16.000Z,0.00
2018-08-12T05:52:16.011Z,0.00
2018-08-12T05:53:15.890Z,0.00
2018-08-12T05:54:15.894Z,0.00
2018-08-12T05:55:16.159Z,0.00
2018-08-12T05:56:15.922Z,0.00
2018-08-12T05:57:16.072Z,0.00
2018-08-12T05:58:16.054Z,0.00
2018-08-12T05:59:15.935Z,0.00
2018-08-12T06:00:16.148Z,0.00
2018-08-12T06:01:15.950Z,0.00
2018-08-12T06:02:15.952Z,0.00
2018-08-12T06:03:15.977Z,0.00
2018-08-12T06:04:15.989Z,0.00
2018-08-12T06:05:16.130Z,0.00
2018-08-12T06:06:16.029Z,0.00
2018-08-12T06:07:16.048Z,0.00
2018-08-12T06:08:16.140Z,0.00
2018-08-12T06:09:16.014Z,0.00
2018-08-12T06:10:16.356Z,0.00
2018-08-12T06:11:16.165Z,0.00
2018-08-12T06:12:16.057Z,0.00
2018-08-12T06:13:16.182Z,0.00
2018-08-12T06:14:16.183Z,0.00
2018-08-12T06:15:16.494Z,0.00
2018-08-12T06:16:16.205Z,0.00
2018-08-12T06:17:16.102Z,0.00
2018-08-12T06:18:16.095Z,0.00
2018-08-12T06:19:16.107Z,0.00
2018-08-12T06:20:16.411Z,0.00
2018-08-12T06:21:16.241Z,0.00
2018-08-12T06:22:16.249Z,0.00
2018-08-12T06:23:16.124Z,0.00
2018-08-12T06:24:16.136Z,0.00
2018-08-12T06:25:16.277Z,0.00
2018-08-12T06:26:16.582Z,0.00
2018-08-12T06:27:16.288Z,0.00
2018-08-12T06:28:16.168Z,0.00
2018-08-12T06:29:16.177Z,0.00
2018-08-12T06:30:16.316Z,0.00
2018-08-12T06:31:16.447Z,0.00
2018-08-12T06:32:16.214Z,0.00
2018-08-12T06:33:16.254Z,0.00
2018-08-12T06:34:16.278Z,0.00
2018-08-12T06:35:16.230Z,0.00
2018-08-12T06:36:16.619Z,0.00
2018-08-12T06:37:16.252Z,0.00
2018-08-12T06:38:16.255Z,0.00
2018-08-12T06:39:16.277Z,0.00
2018-08-12T06:40:16.309Z,0.00
2018-08-12T06:41:16.852Z,0.00
2018-08-12T06:42:16.417Z,0.00
2018-08-12T06:43:16.420Z,0.00
2018-08-12T06:44:16.433Z,0.00
2018-08-12T06:45:16.633Z,0.00
2018-08-12T06:46:16.490Z,0.00
2018-08-12T06:47:16.345Z,0.00
2018-08-12T06:48:16.460Z,0.00
2018-08-12T06:49:16.474Z,0.00
2018-08-12T06:50:16.357Z,0.00
2018-08-12T06:51:16.792Z,0.00
2018-08-12T06:52:16.367Z,0.00
2018-08-12T06:53:16.510Z,0.00
2018-08-12T06:54:16.384Z,0.00
2018-08-12T06:55:16.391Z,0.00
2018-08-12T06:56:16.404Z,0.00
2018-08-12T06:57:16.665Z,0.00
2018-08-12T06:58:16.419Z,0.00
2018-08-12T06:59:16.432Z,0.00
2018-08-12T07:00:16.440Z,0.00
2018-08-12T07:01:16.453Z,0.00
2018-08-12T07:02:16.755Z,0.00
2018-08-12T07:03:16.583Z,0.00
2018-08-12T07:04:16.465Z,0.00
2018-08-12T07:05:16.472Z,0.00
2018-08-12T07:06:16.484Z,0.00
2018-08-12T07:07:16.923Z,0.00
2018-08-12T07:08:16.622Z,0.00
2018-08-12T07:09:16.511Z,0.00
2018-08-12T07:10:16.514Z,0.00
2018-08-12T07:11:16.535Z,0.00
2018-08-12T07:12:16.803Z,0.00
2018-08-12T07:13:16.912Z,0.00
2018-08-12T07:14:16.615Z,0.00
2018-08-12T07:15:16.677Z,0.00
2018-08-12T07:16:16.687Z,0.00
2018-08-12T07:17:16.694Z,0.00
2018-08-12T07:18:16.575Z,0.00
2018-08-12T07:19:16.960Z,0.00
2018-08-12T07:20:16.599Z,0.00
2018-08-12T07:21:16.608Z,0.00
2018-08-12T07:22:16.614Z,0.00
2018-08-12T07:23:16.623Z,0.00
2018-08-12T07:24:16.642Z,0.00
2018-08-12T07:25:16.774Z,0.00
2018-08-12T07:26:16.767Z,0.00
2018-08-12T07:27:16.652Z,0.00
2018-08-12T07:28:16.785Z,0.00
2018-08-12T07:29:16.973Z,0.00
2018-08-12T07:30:16.684Z,0.00
2018-08-12T07:31:16.685Z,0.00
2018-08-12T07:32:16.687Z,0.00
2018-08-12T07:33:16.830Z,0.00
2018-08-12T07:34:17.082Z,0.00
2018-08-12T07:35:16.726Z,0.00
2018-08-12T07:36:16.726Z,0.00
2018-08-12T07:37:16.740Z,0.00
2018-08-12T07:38:16.744Z,0.00
2018-08-12T07:39:17.125Z,0.00
2018-08-12T07:40:16.764Z,0.00
2018-08-12T07:41:16.765Z,0.00
2018-08-12T07:42:16.897Z,0.00
2018-08-12T07:43:16.793Z,0.00
2018-08-12T07:44:16.789Z,0.00
2018-08-12T07:45:17.235Z,0.00
2018-08-12T07:46:16.805Z,0.00
2018-08-12T07:47:16.817Z,0.00
2018-08-12T07:48:16.831Z,0.00
2018-08-12T07:49:16.964Z,0.00
2018-08-12T07:50:17.163Z,0.00
2018-08-12T07:51:16.851Z,0.00
2018-08-12T07:52:16.870Z,0.00
2018-08-12T07:53:16.870Z,0.00
2018-08-12T07:54:17.007Z,0.00
2018-08-12T07:55:17.217Z,0.00
2018-08-12T07:56:16.893Z,0.00
2018-08-12T07:57:17.031Z,0.00
2018-08-12T07:58:17.044Z,0.00
2018-08-12T07:59:16.925Z,0.00
2018-08-12T08:00:17.132Z,0.00
2018-08-12T08:01:16.941Z,0.00
2018-08-12T08:02:16.950Z,0.00
2018-08-12T08:03:16.976Z,0.00
2018-08-12T08:04:16.980Z,0.00
2018-08-12T08:05:17.400Z,0.00
2018-08-12T08:06:17.027Z,0.00
2018-08-12T08:07:17.117Z,0.00
2018-08-12T08:08:17.131Z,0.00
2018-08-12T08:09:17.004Z,0.00
2018-08-12T08:10:17.322Z,0.00
2018-08-12T08:11:17.153Z,0.00
2018-08-12T08:12:17.037Z,0.00
2018-08-12T08:13:17.053Z,0.00
2018-08-12T08:14:17.051Z,0.00
2018-08-12T08:15:17.392Z,0.00
2018-08-12T08:16:17.206Z,0.00
2018-08-12T08:17:17.092Z,0.00
2018-08-12T08:18:17.092Z,0.00
2018-08-12T08:19:17.094Z,0.00
2018-08-12T08:20:17.308Z,0.00
2018-08-12T08:21:17.251Z,0.00
2018-08-12T08:22:17.137Z,0.00
2018-08-12T08:23:17.147Z,0.00
2018-08-12T08:24:17.149Z,0.00
2018-08-12T08:25:17.507Z,0.00
2018-08-12T08:26:17.182Z,0.00
2018-08-12T08:27:17.176Z,0.00
2018-08-12T08:28:17.193Z,0.00
2018-08-12T08:29:17.198Z,0.00
2018-08-12T08:30:17.366Z,0.00
2018-08-12T08:31:17.402Z,0.00
2018-08-12T08:32:17.312Z,0.00
2018-08-12T08:33:17.240Z,0.00
2018-08-12T08:34:17.250Z,0.00
2018-08-12T08:35:17.526Z,0.00
2018-08-12T08:36:17.259Z,0.00
2018-08-12T08:37:17.308Z,0.00
2018-08-12T08:38:17.288Z,0.00
2018-08-12T08:39:17.408Z,0.00
2018-08-12T08:40:17.425Z,0.00
2018-08-12T08:41:17.578Z,0.00
2018-08-12T08:42:17.441Z,0.00
2018-08-12T08:43:17.448Z,0.00
2018-08-12T08:44:17.538Z,0.00
2018-08-12T08:45:17.339Z,0.00
2018-08-12T08:46:17.363Z,0.00
2018-08-12T08:47:17.374Z,0.00
2018-08-12T08:48:17.372Z,0.00
2018-08-12T08:49:17.691Z,0.00
2018-08-12T08:50:17.387Z,0.00
2018-08-12T08:51:17.527Z,0.00
2018-08-12T08:52:17.412Z,0.00
2018-08-12T08:53:17.425Z,0.00
2018-08-12T08:54:17.707Z,0.00
2018-08-12T08:55:17.452Z,0.00
2018-08-12T08:56:17.574Z,0.00
2018-08-12T08:57:17.463Z,0.00
2018-08-12T08:58:17.466Z,0.00
2018-08-12T08:59:17.476Z,0.00
2018-08-12T09:00:17.773Z,0.00
2018-08-12T09:01:17.540Z,0.00
2018-08-12T09:02:17.631Z,0.00
2018-08-12T09:03:17.720Z,0.00
2018-08-12T09:04:17.522Z,0.00
2018-08-12T09:05:17.561Z,0.00
2018-08-12T09:06:17.670Z,0.00
2018-08-12T09:07:17.560Z,0.00
2018-08-12T09:08:17.868Z,0.00
2018-08-12T09:09:17.790Z,0.00
2018-08-12T09:10:17.595Z,0.00
2018-08-12T09:11:17.639Z,0.00
2018-08-12T09:12:17.602Z,0.00
2018-08-12T09:13:17.812Z,0.00
2018-08-12T09:14:17.746Z,0.00
2018-08-12T09:15:17.631Z,0.00
2018-08-12T09:16:17.766Z,0.00
2018-08-12T09:17:17.651Z,0.00
2018-08-12T09:18:17.981Z,0.00
2018-08-12T09:19:17.673Z,0.00
2018-08-12T09:20:17.695Z,0.00
2018-08-12T09:21:17.697Z,0.00
2018-08-12T09:22:17.697Z,0.00
2018-08-12T09:23:17.869Z,0.00
2018-08-12T09:24:17.760Z,0.00
2018-08-12T09:25:17.945Z,0.00
2018-08-12T09:26:17.873Z,0.00
2018-08-12T09:27:17.755Z,0.00
2018-08-12T09:28:17.892Z,0.00
2018-08-12T09:29:17.777Z,0.00
2018-08-12T09:30:18.082Z,0.00
2018-08-12T09:31:17.791Z,0.00
2018-08-12T09:32:17.816Z,0.00
2018-08-12T09:33:17.858Z,0.00
2018-08-12T09:34:17.947Z,0.00
2018-08-12T09:35:18.158Z,5.63
2018-08-12T09:36:17.853Z,5.63
2018-08-12T09:37:17.974Z,5.63
2018-08-12T09:38:17.882Z,5.63
2018-08-12T09:39:18.000Z,11.25
2018-08-12T09:40:18.031Z,11.25
2018-08-12T09:41:17.891Z,11.25
2018-08-12T09:42:17.941Z,11.25
2018-08-12T09:43:17.911Z,11.25
2018-08-12T09:44:18.046Z,16.88
2018-08-12T09:45:18.304Z,22.50
2018-08-12T09:46:17.945Z,22.50
2018-08-12T09:47:18.081Z,22.50
2018-08-12T09:48:17.969Z,22.50
2018-08-12T09:49:18.094Z,28.13
2018-08-12T09:50:18.194Z,33.75
2018-08-12T09:51:18.009Z,33.75
2018-08-12T09:52:18.005Z,39.38
2018-08-12T09:53:18.139Z,39.38
2018-08-12T09:54:18.145Z,56.25
2018-08-12T09:55:18.460Z,67.50
2018-08-12T09:56:18.051Z,73.13
2018-08-12T09:57:18.182Z,84.38
2018-08-12T09:58:18.229Z,90.00
2018-08-12T09:59:18.080Z,90.00
2018-08-12T10:00:18.332Z,95.63
2018-08-12T10:01:18.096Z,106.88
2018-08-12T10:02:18.098Z,123.75
2018-08-12T10:03:18.120Z,123.75
2018-08-12T10:04:18.246Z,129.38
2018-08-12T10:05:18.344Z,118.13
2018-08-12T10:06:18.157Z,118.13
2018-08-12T10:07:18.161Z,123.75
2018-08-12T10:08:18.291Z,123.75
2018-08-12T10:09:18.300Z,135.00
2018-08-12T10:10:18.460Z,140.63
2018-08-12T10:11:18.203Z,157.50
2018-08-12T10:12:18.464Z,163.13
2018-08-12T10:13:18.213Z,180.00
2018-08-12T10:14:18.226Z,174.38
2018-08-12T10:15:18.367Z,180.00
2018-08-12T10:16:18.300Z,185.63
2018-08-12T10:17:18.464Z,168.75
2018-08-12T10:18:18.280Z,157.50
2018-08-12T10:19:18.403Z,180.00
2018-08-12T10:20:18.415Z,174.38
2018-08-12T10:21:18.302Z,180.00
2018-08-12T10:22:18.637Z,180.00
2018-08-12T10:23:18.339Z,180.00
2018-08-12T10:24:18.362Z,185.63
2018-08-12T10:25:18.344Z,202.50
2018-08-12T10:26:18.377Z,202.50
2018-08-12T10:27:18.573Z,191.25
2018-08-12T10:28:18.394Z,213.75
2018-08-12T10:29:18.488Z,247.50
2018-08-12T10:30:18.416Z,247.50
2018-08-12T10:31:18.404Z,270.00
2018-08-12T10:32:18.742Z,264.38
2018-08-12T10:33:18.426Z,270.00
2018-08-12T10:34:18.441Z,264.38
2018-08-12T10:35:18.579Z,264.38
2018-08-12T10:36:18.592Z,253.13
2018-08-12T10:37:18.604Z,241.88
2018-08-12T10:38:18.740Z,230.63
2018-08-12T10:39:18.510Z,230.63
2018-08-12T10:40:18.512Z,253.13
2018-08-12T10:41:18.523Z,275.63
2018-08-12T10:42:18.540Z,303.75
2018-08-12T10:43:18.745Z,309.38
2018-08-12T10:44:18.690Z,309.38
2018-08-12T10:45:18.581Z,331.88
2018-08-12T10:46:18.701Z,309.38
2018-08-12T10:47:18.591Z,286.88
2018-08-12T10:48:18.795Z,253.13
2018-08-12T10:49:18.736Z,236.25
2018-08-12T10:50:18.624Z,225.00
2018-08-12T10:51:18.640Z,219.38
2018-08-12T10:52:18.637Z,185.63
2018-08-12T10:53:18.932Z,196.88
2018-08-12T10:54:18.664Z,219.38
2018-08-12T10:55:18.672Z,196.88
2018-08-12T10:56:18.689Z,196.88
2018-08-12T10:57:18.828Z,196.88
2018-08-12T10:58:18.984Z,219.38
2018-08-12T10:59:18.768Z,208.13
2018-08-12T11:00:19.034Z,196.88
2018-08-12T11:01:18.756Z,185.63
2018-08-12T11:02:18.753Z,191.25
2018-08-12T11:03:18.765Z,219.38
2018-08-12T11:04:18.789Z,292.50
2018-08-12T11:05:19.103Z,298.13
2018-08-12T11:06:18.807Z,303.75
2018-08-12T11:07:18.987Z,303.75
2018-08-12T11:08:18.829Z,337.50
2018-08-12T11:09:18.965Z,292.50
2018-08-12T11:10:19.050Z,331.88
2018-08-12T11:11:18.856Z,382.50
2018-08-12T11:12:18.935Z,399.38
2018-08-12T11:13:19.012Z,382.50
2018-08-12T11:14:18.903Z,376.88
2018-08-12T11:15:19.278Z,393.75
2018-08-12T11:16:18.920Z,393.75
2018-08-12T11:17:19.055Z,399.38
2018-08-12T11:18:19.064Z,405.00
2018-08-12T11:19:18.952Z,405.00
2018-08-12T11:20:19.245Z,410.63
2018-08-12T11:21:18.987Z,450.00
2018-08-12T11:22:18.983Z,466.88
2018-08-12T11:23:18.998Z,444.38
2018-08-12T11:24:19.018Z,444.38
2018-08-12T11:25:19.237Z,427.50
2018-08-12T11:26:19.164Z,433.13
2018-08-12T11:27:19.170Z,438.75
2018-08-12T11:28:19.066Z,438.75
2018-08-12T11:29:19.197Z,450.00
2018-08-12T11:30:19.247Z,444.38
2018-08-12T11:31:19.129Z,450.00
2018-08-12T11:32:19.241Z,461.25
2018-08-12T11:33:19.130Z,489.38
2018-08-12T11:34:19.184Z,500.63
2018-08-12T11:35:19.307Z,506.25
2018-08-12T11:36:19.282Z,461.25
2018-08-12T11:37:19.298Z,410.63
2018-08-12T11:38:19.193Z,376.88
2018-08-12T11:39:19.204Z,382.50
2018-08-12T11:40:19.209Z,427.50
2018-08-12T11:41:19.629Z,483.75
2018-08-12T11:42:19.247Z,523.13
2018-08-12T11:43:19.379Z,500.63
2018-08-12T11:44:19.305Z,528.75
2018-08-12T11:45:19.280Z,551.25
2018-08-12T11:46:19.516Z,506.25
2018-08-12T11:47:19.348Z,478.13
2018-08-12T11:48:19.444Z,489.38
2018-08-12T11:49:19.338Z,483.75
2018-08-12T11:50:19.466Z,500.63
2018-08-12T11:51:19.506Z,517.50
2018-08-12T11:52:19.358Z,478.13
2018-08-12T11:53:19.507Z,455.63
2018-08-12T11:54:19.516Z,466.88
2018-08-12T11:55:19.411Z,478.13
2018-08-12T11:56:19.636Z,540.00
2018-08-12T11:57:19.579Z,585.00
2018-08-12T11:58:19.451Z,590.63
2018-08-12T11:59:19.473Z,663.75
2018-08-12T12:00:19.473Z,691.88
2018-08-12T12:01:19.812Z,697.50
2018-08-12T12:02:19.505Z,675.00
2018-08-12T12:03:19.637Z,635.63
2018-08-12T12:04:19.543Z,641.25
2018-08-12T12:05:19.672Z,669.38
2018-08-12T12:06:19.753Z,675.00
2018-08-12T12:07:19.566Z,669.38
2018-08-12T12:08:19.711Z,641.25
2018-08-12T12:09:19.598Z,517.50
2018-08-12T12:10:19.653Z,478.13
2018-08-12T12:11:19.623Z,579.38
2018-08-12T12:12:19.885Z,540.00
2018-08-12T12:13:19.678Z,517.50
2018-08-12T12:14:19.710Z,551.25
2018-08-12T12:15:19.685Z,556.88
2018-08-12T12:16:19.829Z,528.75
2018-08-12T12:17:19.911Z,511.88
2018-08-12T12:18:19.848Z,489.38
2018-08-12T12:19:19.743Z,495.00
2018-08-12T12:20:19.884Z,517.50
2018-08-12T12:21:19.771Z,545.63
2018-08-12T12:22:19.976Z,596.25
2018-08-12T12:23:19.797Z,641.25
2018-08-12T12:24:19.810Z,646.88
2018-08-12T12:25:19.949Z,686.25
2018-08-12T12:26:19.832Z,736.88
2018-08-12T12:27:20.040Z,804.38
2018-08-12T12:28:19.857Z,770.63
2018-08-12T12:29:19.867Z,708.75
2018-08-12T12:30:20.019Z,630.00
2018-08-12T12:31:20.035Z,585.00
2018-08-12T12:32:20.233Z,596.25
2018-08-12T12:33:20.061Z,613.13
2018-08-12T12:34:19.946Z,658.13
2018-08-12T12:35:20.152Z,663.75
2018-08-12T12:36:20.103Z,624.38
2018-08-12T12:37:20.322Z,556.88
2018-08-12T12:38:20.003Z,545.63
2018-08-12T12:39:20.015Z,579.38
2018-08-12T12:40:20.032Z,613.13
2018-08-12T12:41:20.046Z,624.38
2018-08-12T12:42:20.285Z,641.25
2018-08-12T12:43:20.200Z,607.50
2018-08-12T12:44:20.221Z,618.75
2018-08-12T12:45:20.153Z,686.25
2018-08-12T12:46:20.124Z,776.25
2018-08-12T12:47:20.370Z,866.25
2018-08-12T12:48:20.145Z,922.50
2018-08-12T12:49:20.218Z,961.88
2018-08-12T12:50:20.331Z,956.25
2018-08-12T12:51:20.193Z,911.25
2018-08-12T12:52:20.414Z,911.25
2018-08-12T12:53:20.228Z,928.13
2018-08-12T12:54:20.243Z,984.38
2018-08-12T12:55:20.384Z,1006.88
2018-08-12T12:56:20.415Z,990.00
2018-08-12T12:57:20.557Z,956.25
2018-08-12T12:58:20.428Z,1035.00
2018-08-12T12:59:20.334Z,1074.38
2018-08-12T13:00:20.331Z,1040.63
2018-08-12T13:01:20.365Z,1035.00
2018-08-12T13:02:20.672Z,1074.38
2018-08-12T13:03:20.377Z,1091.25
2018-08-12T13:04:20.518Z,973.13
2018-08-12T13:05:20.422Z,866.25
2018-08-12T13:06:20.431Z,826.88